Time;durP1;ratioP1;P1;durP2;ratioP2;P2;SDS_P1;SDS_P2;PMS_P1;PMS_P2;Temp;Humidity;BMP_temperature;BMP_pressure;BME280_temperature;BME280_humidity;BME280_pressure;Samples;Min_cycle;Max_cycle;Signal;HPM_P1;HPM_P2
2022/10/30 00:01:18;;;;;;;10.07;2.47;;;11.20;1.00;;;-147.47;100.00;69272.31;5156913;27;33223;-71
2022/10/30 00:03:47;;;;;;;5.70;1.65;;;11.20;1.00;;;-147.47;100.00;69272.31;5156768;27;31957;-70
2022/10/30 00:06:15;;;;;;;10.48;2.47;;;11.20;1.00;;;-147.47;100.00;69272.31;5156693;27;31710;-74
2022/10/30 00:08:43;;;;;;;8.75;2.40;;;11.20;1.00;;;-147.47;100.00;69272.31;5138757;27;31304;-71
2022/10/30 00:11:14;;;;;;;8.27;2.30;;;11.20;1.00;;;-147.47;100.00;69272.31;5135926;27;32750;-72
2022/10/30 00:13:45;;;;;;;7.05;2.10;;;11.20;1.00;;;-147.47;100.00;69272.31;5135862;27;33252;-71
2022/10/30 00:16:13;;;;;;;8.98;2.20;;;11.20;1.00;;;-147.47;100.00;69272.31;5138778;27;31803;-70
2022/10/30 00:18:42;;;;;;;9.85;2.28;;;11.20;1.00;;;-147.47;100.00;69272.31;5135490;27;31614;-71
2022/10/30 00:21:14;;;;;;;7.47;2.45;;;11.20;1.00;;;-147.47;100.00;69272.31;5135666;27;32420;-69
2022/10/30 00:23:47;;;;;;;8.20;2.10;;;11.20;1.00;;;-147.47;100.00;69272.31;5135264;27;31804;-70
2022/10/30 00:26:18;;;;;;;8.75;2.78;;;11.30;1.00;;;-147.47;100.00;69272.31;5135636;27;32384;-69
2022/10/30 00:28:52;;;;;;;6.53;1.92;;;11.20;1.00;;;-147.47;100.00;69272.31;5135670;27;32298;-70
2022/10/30 00:31:20;;;;;;;7.35;2.08;;;11.20;1.00;;;-147.47;100.00;69272.31;5135419;27;32624;-71
2022/10/30 00:33:50;;;;;;;6.03;1.90;;;11.20;1.00;;;-147.47;100.00;69272.31;5135780;27;33095;-71
2022/10/30 00:36:19;;;;;;;9.23;2.55;;;11.20;1.00;;;-147.47;100.00;69272.31;5137698;27;31177;-71
2022/10/30 00:38:48;;;;;;;8.60;2.28;;;11.20;1.00;;;-147.47;100.00;69272.31;5134280;27;31349;-72
2022/10/30 00:41:18;;;;;;;6.65;2.08;;;11.20;1.00;;;-147.47;100.00;69272.31;5137592;27;32381;-69
2022/10/30 00:43:47;;;;;;;6.47;1.70;;;11.20;1.00;;;-147.47;100.00;69272.31;5134182;27;32623;-70
2022/10/30 00:46:24;;;;;;;7.45;1.80;;;11.20;1.00;;;-147.47;100.00;69272.31;5137543;27;31375;-70
2022/10/30 00:48:58;;;;;;;8.35;2.40;;;11.20;1.00;;;-147.47;100.00;69272.31;5134102;27;31262;-71
2022/10/30 00:51:29;;;;;;;9.05;2.28;;;11.20;1.00;;;-147.47;100.00;69272.31;5137334;27;31887;-71
2022/10/30 00:54:02;;;;;;;8.80;1.80;;;11.20;1.00;;;-147.47;100.00;69272.31;5120158;27;31450;-71
2022/10/30 00:56:31;;;;;;;7.00;2.00;;;11.10;1.00;;;-147.47;100.00;69272.31;5137617;27;31452;-71
2022/10/30 00:59:04;;;;;;;5.68;1.83;;;11.10;1.00;;;-147.47;100.00;69272.31;5135190;27;31595;-69
2022/10/30 01:01:38;;;;;;;9.45;1.92;;;11.10;1.00;;;-147.47;100.00;69272.31;5137390;27;32045;-71
2022/10/30 01:04:07;;;;;;;6.18;2.17;;;11.10;1.00;;;-147.47;100.00;69272.31;5135375;27;32735;-71
2022/10/30 01:06:40;;;;;;;9.00;2.38;;;11.00;1.00;;;-147.47;100.00;69272.31;5137323;27;32255;-71
2022/10/30 01:09:09;;;;;;;7.43;1.92;;;11.10;1.00;;;-147.47;100.00;69272.31;5133813;27;32476;-72
2022/10/30 01:11:37;;;;;;;7.00;1.65;;;11.10;1.00;;;-147.47;100.00;69272.31;5137149;27;32704;-72
2022/10/30 01:14:10;;;;;;;6.70;2.03;;;11.20;1.00;;;-147.47;100.00;69272.31;5133913;27;32988;-73
2022/10/30 01:17:04;;;;;;;7.75;1.73;;;11.10;1.00;;;-147.47;100.00;69272.31;5134842;27;31758;-72
2022/10/30 01:19:44;;;;;;;7.50;2.10;;;11.10;1.00;;;-147.47;100.00;69272.31;5133682;27;31486;-71
2022/10/30 01:22:30;;;;;;;7.63;1.90;;;11.10;1.00;;;-147.47;100.00;69272.31;5134935;27;32549;-72
2022/10/30 01:25:10;;;;;;;11.80;2.50;;;11.10;1.00;;;-147.47;100.00;69272.31;5133654;27;32457;-71
2022/10/30 01:27:54;;;;;;;7.30;1.95;;;11.10;1.00;;;-147.47;100.00;69272.31;5119850;27;33504;-72
2022/10/30 01:30:40;;;;;;;4.72;2.05;;;11.10;1.00;;;-147.47;100.00;69272.31;5137300;27;32209;-72
2022/10/30 01:33:26;;;;;;;8.43;2.55;;;11.10;1.00;;;-147.47;100.00;69272.31;5119987;27;31418;-71
2022/10/30 01:36:05;;;;;;;6.70;2.20;;;11.10;1.00;;;-147.47;100.00;69272.31;5119899;27;31473;-72
2022/10/30 01:38:39;;;;;;;7.72;2.35;;;11.10;1.00;;;-147.47;100.00;69272.31;5123694;27;31724;-71
2022/10/30 01:41:08;;;;;;;6.43;1.88;;;11.10;1.00;;;-147.47;100.00;69272.31;5137141;27;31531;-72
2022/10/30 01:43:38;;;;;;;7.60;2.20;;;11.10;2.60;;;-147.47;100.00;69272.31;5140511;27;32073;-71
2022/10/30 01:46:39;;;;;;;10.18;2.75;;;11.10;2.60;;;-147.47;100.00;69272.31;5136790;27;31645;-72
2022/10/30 01:49:48;;;;;;;8.32;2.30;;;11.10;6.00;;;-147.47;100.00;69272.31;5138219;27;31923;-73
2022/10/30 01:52:28;;;;;;;14.05;2.53;;;11.00;10.00;;;-147.47;100.00;69272.31;5101736;27;32137;-71
2022/10/30 01:55:11;;;;;;;11.45;2.97;;;11.00;16.00;;;-147.47;100.00;69272.31;5138126;27;32477;-71
2022/10/30 01:57:48;;;;;;;6.75;2.45;;;11.00;13.40;;;-147.47;100.00;69272.31;5136781;27;31867;-71
2022/10/30 02:00:18;;;;;;;9.70;1.90;;;11.00;16.20;;;-147.47;100.00;69272.31;5140025;27;32086;-71
2022/10/30 02:02:50;;;;;;;7.75;2.20;;;11.10;15.20;;;-147.47;100.00;69272.31;5136673;27;32449;-72
2022/10/30 02:05:33;;;;;;;8.98;2.03;;;11.10;16.10;;;-147.47;100.00;69272.31;5140055;27;31130;-70
2022/10/30 02:08:02;;;;;;;7.47;2.50;;;11.00;17.70;;;-147.47;100.00;69272.31;5136669;27;31799;-71
2022/10/30 02:10:33;;;;;;;8.80;2.45;;;11.00;20.60;;;-147.47;100.00;69272.31;5139985;27;31279;-71
2022/10/30 02:13:02;;;;;;;7.53;2.35;;;11.00;23.50;;;-147.47;100.00;69272.31;5136912;27;33095;-72
2022/10/30 02:15:32;;;;;;;9.90;2.38;;;11.00;26.00;;;-147.47;100.00;69272.31;5139653;27;32874;-72
2022/10/30 02:18:01;;;;;;;7.53;2.40;;;11.00;28.40;;;-147.47;100.00;69272.31;5140667;27;32192;-71
2022/10/30 02:20:31;;;;;;;11.68;2.67;;;11.00;29.50;;;-147.47;100.00;69272.31;5137327;27;32289;-71
2022/10/30 02:23:00;;;;;;;7.75;2.30;;;11.00;30.70;;;-147.47;100.00;69272.31;5122542;27;33209;-70
2022/10/30 02:25:35;;;;;;;5.85;2.20;;;11.00;31.20;;;-147.47;100.00;69272.31;5122579;27;31831;-70
2022/10/30 02:28:03;;;;;;;7.97;2.30;;;11.00;33.20;;;-147.47;100.00;69272.31;5139711;27;31124;-71
2022/10/30 02:30:33;;;;;;;5.70;2.00;;;11.00;32.70;;;-147.47;100.00;69272.31;5137722;27;32350;-71
2022/10/30 02:33:03;;;;;;;6.63;2.22;;;11.10;30.30;;;-147.47;100.00;69272.31;5136383;27;32713;-71
2022/10/30 02:35:34;;;;;;;11.25;2.88;;;11.10;30.20;;;-147.47;100.00;69272.31;5137395;27;32260;-70
2022/10/30 02:38:02;;;;;;;10.50;2.28;;;11.10;30.80;;;-147.47;100.00;69272.31;5136605;27;31835;-71
2022/10/30 02:40:33;;;;;;;9.73;2.00;;;11.00;32.00;;;-147.47;100.00;69272.31;5136392;27;32617;-72
2022/10/30 02:43:01;;;;;;;12.75;2.95;;;11.10;35.70;;;-147.47;100.00;69272.31;5137566;27;31616;-70
2022/10/30 02:45:31;;;;;;;7.60;2.03;;;11.00;36.50;;;-147.47;100.00;69272.31;5139437;27;32247;-73
2022/10/30 02:48:00;;;;;;;12.20;2.47;;;11.00;35.60;;;-147.47;100.00;69272.31;5138733;27;31455;-72
2022/10/30 02:50:28;;;;;;;11.75;2.47;;;11.00;35.70;;;-147.47;100.00;69272.31;5139181;27;31978;-72
2022/10/30 02:52:59;;;;;;;8.48;2.33;;;11.00;38.90;;;-147.47;100.00;69272.31;5134788;27;31606;-71
2022/10/30 02:55:28;;;;;;;6.72;2.72;;;11.00;42.20;;;-147.47;100.00;69272.31;5138452;27;31716;-72
2022/10/30 02:57:57;;;;;;;11.15;2.65;;;11.00;45.90;;;-147.47;100.00;69272.31;5136012;27;32017;-71
2022/10/30 03:00:25;;;;;;;9.27;2.90;;;11.00;47.30;;;-147.47;100.00;69272.31;5139476;27;31235;-71
2022/10/30 03:02:56;;;;;;;12.90;2.63;;;11.00;48.60;;;-147.47;100.00;69272.31;5135913;27;32206;-70
2022/10/30 03:05:25;;;;;;;6.70;2.72;;;11.00;50.70;;;-147.47;100.00;69272.31;5121828;27;32049;-71
2022/10/30 03:07:55;;;;;;;8.65;2.58;;;10.90;51.80;;;-147.47;100.00;69272.31;5135801;27;31854;-71
2022/10/30 03:10:25;;;;;;;9.27;2.40;;;10.90;53.00;;;-147.47;100.00;69272.31;5137006;27;31763;-72
2022/10/30 03:12:54;;;;;;;9.90;2.20;;;11.00;48.70;;;-147.47;100.00;69272.31;5135788;27;32040;-73
2022/10/30 03:15:22;;;;;;;8.88;2.78;;;11.00;49.40;;;-147.47;100.00;69272.31;5138594;27;31931;-71
2022/10/30 03:17:51;;;;;;;13.65;2.95;;;11.00;47.60;;;-147.47;100.00;69272.31;5135896;27;32034;-72
2022/10/30 03:20:20;;;;;;;11.70;2.72;;;11.00;45.20;;;-147.47;100.00;69272.31;5136815;27;32645;-72
2022/10/30 03:22:49;;;;;;;8.38;2.30;;;11.00;45.90;;;-147.47;100.00;69272.31;5138862;27;32613;-71
2022/10/30 03:25:22;;;;;;;7.90;2.70;;;11.00;42.20;;;-147.47;100.00;69272.31;5135457;27;32476;-70
2022/10/30 03:27:55;;;;;;;10.38;2.50;;;11.00;44.20;;;-147.47;100.00;69272.31;5138724;27;31967;-71
2022/10/30 03:30:23;;;;;;;6.78;2.13;;;11.00;44.00;;;-147.47;100.00;69272.31;5138710;27;32549;-71
2022/10/30 03:32:52;;;;;;;8.50;2.53;;;10.90;41.60;;;-147.47;100.00;69272.31;5121585;27;32213;-70
2022/10/30 03:35:22;;;;;;;12.65;2.15;;;11.00;32.00;;;-147.47;100.00;69272.31;5121689;27;31248;-71
2022/10/30 03:37:51;;;;;;;9.02;2.08;;;11.00;25.20;;;-147.47;100.00;69272.31;5135155;27;32006;-73
2022/10/30 03:40:21;;;;;;;11.95;2.55;;;11.00;13.70;;;-147.47;100.00;69272.31;5138558;27;31169;-72
2022/10/30 03:42:49;;;;;;;6.32;2.30;;;11.00;15.60;;;-147.47;100.00;69272.31;5138275;27;30996;-71
2022/10/30 03:45:20;;;;;;;9.43;2.42;;;11.00;16.60;;;-147.47;100.00;69272.31;5138495;27;31688;-70
2022/10/30 03:47:49;;;;;;;6.65;2.47;;;11.00;14.60;;;-147.47;100.00;69272.31;5135239;27;31945;-70
2022/10/30 03:50:17;;;;;;;9.88;2.17;;;11.10;15.10;;;-147.47;100.00;69272.31;5136233;27;31817;-71
2022/10/30 03:52:46;;;;;;;13.30;3.35;;;11.10;16.00;;;-147.47;100.00;69272.31;5135287;27;31599;-71
2022/10/30 03:55:15;;;;;;;11.93;2.70;;;11.10;20.50;;;-147.47;100.00;69272.31;5138259;27;32048;-71
2022/10/30 03:57:44;;;;;;;10.18;2.88;;;11.10;21.20;;;-147.47;100.00;69272.31;5135024;27;31433;-71
2022/10/30 04:00:19;;;;;;;11.15;2.60;;;11.10;23.70;;;-147.47;100.00;69272.31;5137266;27;30699;-71
2022/10/30 04:02:57;;;;;;;9.43;2.50;;;11.00;28.40;;;-147.47;100.00;69272.31;5134939;27;31612;-71
2022/10/30 04:05:28;;;;;;;9.82;2.55;;;11.00;30.80;;;-147.47;100.00;69272.31;5138044;27;32037;-71
2022/10/30 04:08:00;;;;;;;7.28;2.58;;;11.00;32.00;;;-147.47;100.00;69272.31;5134727;27;32740;-74
2022/10/30 04:10:31;;;;;;;9.38;2.70;;;11.00;35.30;;;-147.47;100.00;69272.31;5134802;27;31850;-71
2022/10/30 04:13:05;;;;;;;8.88;2.70;;;11.00;35.80;;;-147.47;100.00;69272.31;5135065;27;31765;-72
2022/10/30 04:15:37;;;;;;;16.70;2.88;;;10.90;40.40;;;-147.47;100.00;69272.31;5136920;27;33743;-71
2022/10/30 04:18:07;;;;;;;7.40;2.42;;;10.90;49.50;;;-147.47;100.00;69272.31;5134642;27;31933;-74
2022/10/30 04:20:36;;;;;;;11.50;3.00;;;10.80;54.90;;;-147.47;100.00;69272.31;5134677;27;32556;-71
2022/10/30 04:23:12;;;;;;;11.15;2.85;;;10.90;50.30;;;-147.47;100.00;69272.31;5138093;27;30627;-71
2022/10/30 04:25:41;;;;;;;8.63;2.65;;;10.80;59.10;;;-147.47;100.00;69272.31;5134581;27;32426;-70
2022/10/30 04:28:10;;;;;;;14.98;3.08;;;10.80;61.10;;;-147.47;100.00;69272.31;5135857;27;32653;-71
2022/10/30 04:30:41;;;;;;;8.45;2.33;;;10.90;58.10;;;-147.47;100.00;69272.31;5138090;27;31811;-71
2022/10/30 04:33:13;;;;;;;12.52;2.50;;;10.90;52.80;;;-147.47;100.00;69272.31;5134638;27;31519;-70
2022/10/30 04:35:43;;;;;;;15.10;2.97;;;10.90;53.00;;;-147.47;100.00;69272.31;5134626;27;32485;-71
2022/10/30 04:38:17;;;;;;;9.70;2.53;;;10.90;55.50;;;-147.47;100.00;69272.31;5137865;27;32573;-71
2022/10/30 04:40:46;;;;;;;9.35;2.50;;;10.90;56.30;;;-147.47;100.00;69272.31;5134213;27;32793;-70
2022/10/30 04:43:16;;;;;;;10.43;2.45;;;10.90;52.30;;;-147.47;100.00;69272.31;5137548;27;31109;-71
2022/10/30 04:45:50;;;;;;;12.98;2.90;;;10.90;49.70;;;-147.47;100.00;69272.31;5134235;27;32865;-72
2022/10/30 04:48:19;;;;;;;11.48;2.78;;;10.90;46.20;;;-147.47;100.00;69272.31;5137521;27;31562;-71
2022/10/30 04:50:49;;;;;;;7.82;2.75;;;10.90;46.00;;;-147.47;100.00;69272.31;5134617;27;32539;-71
2022/10/30 04:53:25;;;;;;;;;;;10.70;47.10;;;-147.47;100.00;69272.31;5137799;27;30941;-71
2022/10/30 04:56:00;;;;;;;10.38;2.33;;;10.70;54.50;;;-147.47;100.00;69272.31;5133796;27;33413;-70
2022/10/30 04:58:29;;;;;;;8.77;2.50;;;10.70;52.20;;;-147.47;100.00;69272.31;5137181;27;32380;-70
2022/10/30 05:01:17;;;;;;;10.75;3.22;;;10.60;51.40;;;-147.47;100.00;69272.31;5135258;27;32327;-70
2022/10/30 05:03:47;;;;;;;8.20;2.20;;;10.60;49.60;;;-147.47;100.00;69272.31;5137305;27;31873;-70
2022/10/30 05:06:23;;;;;;;8.18;2.65;;;10.60;52.50;;;-147.47;100.00;69272.31;5137031;27;32764;-72
2022/10/30 05:08:52;;;;;;;8.60;1.95;;;10.70;48.20;;;-147.47;100.00;69272.31;5133886;27;31683;-70
2022/10/30 05:11:43;;;;;;;13.63;3.10;;;10.60;46.70;;;-147.47;100.00;69272.31;5129173;27;32360;-69
2022/10/30 05:14:11;;;;;;;7.28;2.22;;;10.60;42.70;;;-147.47;100.00;69272.31;5134092;27;32380;-71
2022/10/30 05:16:42;;;;;;;14.57;3.17;;;10.60;46.00;;;-147.47;100.00;69272.31;5133967;27;33052;-70
2022/10/30 05:19:11;;;;;;;8.40;2.65;;;10.50;45.90;;;-147.47;100.00;69272.31;5134906;27;31911;-71
2022/10/30 05:21:43;;;;;;;11.80;2.90;;;10.40;49.10;;;-147.47;100.00;69272.31;5136837;27;30673;-71
2022/10/30 05:24:12;;;;;;;10.55;2.47;;;10.40;51.80;;;-147.47;100.00;69272.31;5133748;27;32255;-70
2022/10/30 05:26:45;;;;;;;7.85;2.40;;;10.50;49.10;;;-147.47;100.00;69272.31;5136911;27;32789;-70
2022/10/30 05:29:14;;;;;;;7.70;2.08;;;10.40;47.60;;;-147.47;100.00;69272.31;5133482;27;32032;-70
2022/10/30 05:31:44;;;;;;;9.85;2.38;;;10.40;53.90;;;-147.47;100.00;69272.31;5133699;27;32732;-71
2022/10/30 05:34:18;;;;;;;9.77;2.83;;;10.40;50.70;;;-147.47;100.00;69272.31;5135113;27;32568;-71
2022/10/30 05:36:49;;;;;;;8.40;2.20;;;10.40;54.00;;;-147.47;100.00;69272.31;5136690;27;32959;-70
2022/10/30 05:39:19;;;;;;;8.43;2.65;;;10.40;53.80;;;-147.47;100.00;69272.31;5136807;27;31200;-71
2022/10/30 05:41:50;;;;;;;11.27;2.95;;;10.40;56.40;;;-147.47;100.00;69272.31;5133272;27;31995;-71
2022/10/30 05:44:20;;;;;;;10.48;2.33;;;10.40;56.00;;;-147.47;100.00;69272.31;5133442;27;31819;-71
2022/10/30 05:46:50;;;;;;;6.57;2.45;;;10.40;53.10;;;-147.47;100.00;69272.31;5137293;27;32393;-71
2022/10/30 05:49:25;;;;;;;8.38;2.72;;;10.40;53.60;;;-147.47;100.00;69272.31;5127180;27;30673;-72
2022/10/30 05:51:54;;;;;;;9.18;2.83;;;10.50;48.90;;;-147.47;100.00;69272.31;5155899;27;31566;-71
2022/10/30 05:54:22;;;;;;;6.90;2.42;;;10.50;46.90;;;-147.47;100.00;69272.31;5153525;27;31484;-71
2022/10/30 05:57:07;;;;;;;15.63;2.75;;;10.60;41.30;;;-147.47;100.00;69272.31;5157148;27;32119;-71
2022/10/30 05:59:38;;;;;;;9.32;2.75;;;10.50;40.40;;;-147.47;100.00;69272.31;5153656;27;32159;-71
2022/10/30 06:02:09;;;;;;;10.23;2.30;;;10.50;40.00;;;-147.47;100.00;69272.31;5139017;27;32082;-72
2022/10/30 06:04:38;;;;;;;12.60;2.30;;;10.50;42.80;;;-147.47;100.00;69272.31;5156703;27;30836;-70
2022/10/30 06:07:11;;;;;;;13.18;2.85;;;10.50;44.90;;;-147.47;100.00;69272.31;5153657;27;33242;-71
2022/10/30 06:09:40;;;;;;;9.00;2.55;;;10.60;42.60;;;-147.47;100.00;69272.31;5156787;27;31576;-71
2022/10/30 06:12:41;;;;;;;9.43;2.28;;;10.60;40.20;;;-147.47;100.00;69272.31;5111074;27;31307;-71
2022/10/30 06:15:38;;;;;;;9.75;2.45;;;10.70;34.20;;;-147.47;100.00;69272.31;5147303;27;31348;-70
2022/10/30 06:18:09;;;;;;;8.70;2.08;;;10.70;32.60;;;-147.47;100.00;69272.31;5155012;27;33501;-72
2022/10/30 06:20:42;;;;;;;10.60;2.17;;;10.80;30.40;;;-147.47;100.00;69272.31;5156880;27;31665;-71
2022/10/30 06:23:31;;;;;;;11.45;2.97;;;10.90;23.30;;;-147.47;100.00;69272.31;5156072;27;31621;-70
2022/10/30 06:26:05;;;;;;;12.07;2.63;;;10.90;21.00;;;-147.47;100.00;69272.31;5160883;27;31131;-70
2022/10/30 06:28:42;;;;;;;10.23;2.90;;;11.00;19.20;;;-147.47;100.00;69272.31;5160936;27;32156;-71
2022/10/30 06:31:13;;;;;;;10.65;2.90;;;11.00;19.20;;;-147.47;100.00;69272.31;5160582;27;32461;-69
2022/10/30 06:33:43;;;;;;;8.20;2.13;;;11.00;17.00;;;-147.47;100.00;69272.31;5158407;27;31510;-71
2022/10/30 06:36:13;;;;;;;8.50;2.35;;;11.10;7.40;;;-147.47;100.00;69272.31;5160522;27;30925;-70
2022/10/30 06:38:43;;;;;;;10.48;2.20;;;11.20;1.00;;;-147.47;100.00;69272.31;5158134;27;32703;-70
2022/10/30 06:41:13;;;;;;;11.48;2.85;;;11.30;1.00;;;-147.47;100.00;69272.31;5160198;27;31272;-71
2022/10/30 06:44:00;;;;;;;8.80;2.40;;;11.30;1.00;;;-147.47;100.00;69272.31;5157294;27;31728;-70
2022/10/30 06:46:28;;;;;;;10.82;2.60;;;11.30;1.00;;;-147.47;100.00;69272.31;5156872;27;32435;-69
2022/10/30 06:48:58;;;;;;;10.23;2.60;;;11.30;1.00;;;-147.47;100.00;69272.31;5160041;27;32855;-70
2022/10/30 06:51:28;;;;;;;9.88;2.25;;;11.20;1.00;;;-147.47;100.00;69272.31;5157190;27;32687;-71
2022/10/30 06:53:56;;;;;;;7.97;2.47;;;11.20;1.00;;;-147.47;100.00;69272.31;5156853;27;31310;-71
2022/10/30 06:56:40;;;;;;;11.73;2.50;;;11.20;1.00;;;-147.47;100.00;69272.31;5158029;27;31327;-69
2022/10/30 06:59:28;;;;;;;7.93;2.53;;;11.30;1.00;;;-147.47;100.00;69272.31;5159984;27;32048;-68
2022/10/30 07:02:19;;;;;;;9.02;2.30;;;11.30;1.00;;;-147.47;100.00;69272.31;5160717;27;31978;-68
2022/10/30 07:04:58;;;;;;;9.35;2.42;;;11.30;1.00;;;-147.47;100.00;69272.31;5151870;27;32858;-66
2022/10/30 07:07:27;;;;;;;9.98;2.33;;;11.30;1.00;;;-147.47;100.00;69272.31;5152038;27;30693;-68
2022/10/30 07:09:55;;;;;;;8.10;2.50;;;11.40;1.00;;;-147.47;100.00;69272.31;5165502;27;31770;-69
2022/10/30 07:12:37;;;;;;;9.52;2.13;;;11.50;1.00;;;-147.47;100.00;69272.31;5157338;27;30833;-68
2022/10/30 07:15:22;;;;;;;7.10;1.90;;;11.60;1.00;;;-147.47;100.00;69272.31;5153914;27;31567;-68
2022/10/30 07:18:06;;;;;;;8.35;2.30;;;11.60;1.00;;;-147.47;100.00;69272.31;5152925;27;32265;-68
2022/10/30 07:20:39;;;;;;;11.38;2.22;;;11.70;1.00;;;-147.47;100.00;69272.31;5150154;27;33215;-69
2022/10/30 07:23:07;;;;;;;14.18;2.78;;;11.70;1.00;;;-147.47;100.00;69272.31;5153735;27;32290;-69
2022/10/30 07:25:36;;;;;;;8.15;2.28;;;11.90;1.00;;;-147.47;100.00;69272.31;5134055;27;31661;-68
2022/10/30 07:28:10;;;;;;;10.73;2.72;;;12.00;1.00;;;-147.47;100.00;69272.31;5155826;27;31668;-67
2022/10/30 07:31:05;;;;;;;8.15;2.20;;;12.10;1.00;;;-147.47;100.00;69272.31;5128657;27;32055;-68
2022/10/30 07:33:56;;;;;;;7.53;2.05;;;12.00;1.00;;;-147.47;100.00;69272.31;5147256;27;31846;-67
2022/10/30 07:36:51;;;;;;;10.90;2.65;;;12.30;1.00;;;-147.47;100.00;69272.31;5157896;27;32273;-68
2022/10/30 07:39:40;;;;;;;6.97;1.73;;;12.30;1.00;;;-147.47;100.00;69272.31;5154892;27;31493;-69
2022/10/30 07:42:41;;;;;;;7.10;2.58;;;12.20;1.00;;;-147.47;100.00;69272.31;5131790;27;32463;-67
2022/10/30 07:45:12;;;;;;;7.28;1.92;;;12.30;1.00;;;-147.47;100.00;69272.31;5136618;27;31900;-67
2022/10/30 07:47:59;;;;;;;6.05;1.80;;;12.20;1.00;;;-147.47;100.00;69272.31;5138536;27;31257;-67
2022/10/30 07:50:42;;;;;;;9.55;2.53;;;12.30;1.00;;;-147.47;100.00;69272.31;5135358;27;31485;-71
2022/10/30 07:53:15;;;;;;;6.03;2.05;;;12.10;1.00;;;-147.47;100.00;69272.31;5138232;27;31908;-69
2022/10/30 07:55:44;;;;;;;8.13;2.70;;;12.50;1.00;;;-147.47;100.00;69272.31;5138382;27;31521;-69
2022/10/30 07:58:20;;;;;;;9.90;2.67;;;12.30;1.00;;;-147.47;100.00;69272.31;5136106;27;32682;-68
2022/10/30 08:01:04;;;;;;;7.35;1.90;;;12.30;1.00;;;-147.47;100.00;69272.31;5136246;27;32356;-67
2022/10/30 08:03:35;;;;;;;9.25;2.50;;;12.40;1.00;;;-147.47;100.00;69272.31;5155269;27;32850;-69
2022/10/30 08:06:15;;;;;;;7.60;2.03;;;12.50;1.00;;;-147.47;100.00;69272.31;5134772;27;31989;-68
2022/10/30 08:08:46;;;;;;;10.90;2.25;;;12.30;1.00;;;-147.47;100.00;69272.31;5137881;27;31219;-66
2022/10/30 08:11:25;;;;;;;6.82;2.00;;;12.40;1.00;;;-147.47;100.00;69272.31;5134517;27;32399;-68
2022/10/30 08:13:55;;;;;;;5.18;1.75;;;12.40;1.00;;;-147.47;100.00;69272.31;5137608;27;32056;-69
2022/10/30 08:16:26;;;;;;;10.68;1.95;;;12.30;1.00;;;-147.47;100.00;69272.31;5137719;27;31738;-68
2022/10/30 08:19:00;;;;;;;12.10;2.20;;;12.40;1.00;;;-147.47;100.00;69272.31;5144230;27;31815;-71
2022/10/30 08:21:29;;;;;;;8.00;1.73;;;12.40;1.00;;;-147.47;100.00;69272.31;5158534;27;31030;-67
2022/10/30 08:24:10;;;;;;;5.85;2.03;;;12.30;1.00;;;-147.47;100.00;69272.31;5147851;27;32139;-70
2022/10/30 08:26:44;;;;;;;4.72;1.58;;;12.40;1.00;;;-147.47;100.00;69272.31;5146641;27;31308;-69
2022/10/30 08:29:14;;;;;;;7.53;2.00;;;12.40;1.00;;;-147.47;100.00;69272.31;5130498;27;31057;-68
2022/10/30 08:31:43;;;;;;;7.20;2.03;;;12.50;1.00;;;-147.47;100.00;69272.31;5150141;27;31058;-69
2022/10/30 08:34:26;;;;;;;6.10;1.80;;;12.50;1.00;;;-147.47;100.00;69272.31;5154232;27;33464;-69
2022/10/30 08:37:00;;;;;;;5.60;1.70;;;12.80;1.00;;;-147.47;100.00;69272.31;5155492;27;31586;-69
2022/10/30 08:39:31;;;;;;;6.47;1.92;;;12.80;1.00;;;-147.47;100.00;69272.31;5148635;27;31707;-69
2022/10/30 08:42:16;;;;;;;6.93;1.80;;;12.60;1.00;;;-147.47;100.00;69272.31;5156695;27;30683;-68
2022/10/30 08:44:46;;;;;;;6.50;1.83;;;12.90;1.00;;;-147.47;100.00;69272.31;5151974;27;31440;-68
2022/10/30 08:47:41;;;;;;;9.95;1.98;;;13.30;1.00;;;-147.47;100.00;69272.31;5146351;27;31551;-67
2022/10/30 08:50:10;;;;;;;5.97;2.05;;;13.10;1.00;;;-147.47;100.00;69272.31;5148484;27;32710;-70
2022/10/30 08:52:39;;;;;;;8.02;1.80;;;13.00;1.00;;;-147.47;100.00;69272.31;5127522;27;30358;-80
2022/10/30 08:55:10;;;;;;;7.32;2.05;;;13.00;1.00;;;-147.47;100.00;69272.31;5142710;27;32343;-68
2022/10/30 08:57:42;;;;;;;6.63;2.22;;;12.80;1.00;;;-147.47;100.00;69272.31;5144688;27;31906;-69
2022/10/30 09:00:14;;;;;;;7.95;2.22;;;12.90;1.00;;;-147.47;100.00;69272.31;5127824;27;30393;-69
2022/10/30 09:03:25;;;;;;;8.90;2.38;;;12.90;1.00;;;-147.47;100.00;69272.31;5110469;28;31801;-66
2022/10/30 09:06:17;;;;;;;6.57;1.75;;;13.20;1.00;;;-147.47;100.00;69272.31;5153489;27;32833;-70
2022/10/30 09:09:06;;;;;;;8.68;1.52;;;13.20;1.00;;;-147.47;100.00;69272.31;5152628;27;31967;-69
2022/10/30 09:11:47;;;;;;;4.20;1.52;;;13.10;1.00;;;-147.47;100.00;69272.31;5148154;27;31980;-71
2022/10/30 09:14:16;;;;;;;5.20;1.40;;;13.20;1.00;;;-147.47;100.00;69272.31;5143069;27;31068;-69
2022/10/30 09:16:45;;;;;;;5.00;1.65;;;13.60;1.00;;;-147.47;100.00;69272.31;5142375;27;32594;-68
2022/10/30 09:19:19;;;;;;;6.40;1.70;;;13.20;1.00;;;-147.47;100.00;69272.31;5151256;27;31835;-68
2022/10/30 09:21:49;;;;;;;4.60;1.70;;;13.20;1.00;;;-147.47;100.00;69272.31;5151924;27;31359;-66
2022/10/30 09:24:20;;;;;;;4.90;1.50;;;13.50;1.00;;;-147.47;100.00;69272.31;5151436;27;31163;-68
2022/10/30 09:26:55;;;;;;;7.07;1.80;;;13.40;1.00;;;-147.47;100.00;69272.31;5153593;27;32153;-67
2022/10/30 09:29:31;;;;;;;6.50;1.70;;;13.70;1.00;;;-147.47;100.00;69272.31;5133014;27;31538;-67
2022/10/30 09:32:22;;;;;;;6.32;1.77;;;13.50;1.00;;;-147.47;100.00;69272.31;5140285;27;31989;-66
2022/10/30 09:35:10;;;;;;;5.72;1.73;;;13.20;1.00;;;-147.47;100.00;69272.31;5145333;27;31213;-67
2022/10/30 09:37:43;;;;;;;5.07;1.92;;;13.10;1.00;;;-147.47;100.00;69272.31;5142010;27;31679;-68
2022/10/30 09:40:28;;;;;;;8.10;2.63;;;13.20;1.00;;;-147.47;100.00;69272.31;5152603;27;30604;-67
2022/10/30 09:43:08;;;;;;;7.32;2.17;;;13.10;1.00;;;-147.47;100.00;69272.31;5156787;27;30886;-69
2022/10/30 09:46:04;;;;;;;11.88;1.98;;;13.10;1.00;;;-147.47;100.00;69272.31;5147629;27;32744;-66
2022/10/30 09:49:02;;;;;;;7.60;1.80;;;13.40;1.00;;;-147.47;100.00;69272.31;5124000;27;32505;-66
2022/10/30 09:52:06;;;;;;;5.57;1.65;;;13.50;1.00;;;-147.47;100.00;69272.31;5145844;27;31964;-68
2022/10/30 09:54:56;;;;;;;6.40;1.98;;;13.80;1.00;;;-147.47;100.00;69272.31;5136335;27;31301;-69
2022/10/30 09:57:42;;;;;;;5.28;1.67;;;13.90;1.00;;;-147.47;100.00;69272.31;5137136;27;31653;-67
2022/10/30 10:00:18;;;;;;;6.82;1.70;;;13.90;1.00;;;-147.47;100.00;69272.31;5174578;27;32977;-68
2022/10/30 10:03:18;;;;;;;8.70;1.80;;;13.30;1.00;;;-147.47;100.00;69272.31;5142837;27;31180;-71
2022/10/30 10:06:23;;;;;;;7.50;1.70;;;13.30;1.00;;;-147.47;100.00;69272.31;5137164;27;32112;-71
2022/10/30 10:09:09;;;;;;;7.75;2.00;;;13.20;1.00;;;-147.47;100.00;69272.31;5160564;27;32071;-67
2022/10/30 10:11:56;;;;;;;5.63;2.50;;;13.10;1.00;;;-147.47;100.00;69272.31;5156576;27;33286;-69
2022/10/30 10:14:32;;;;;;;6.45;2.15;;;13.10;1.00;;;-147.47;100.00;69272.31;5146995;27;31856;-67
2022/10/30 10:17:10;;;;;;;6.50;2.20;;;13.10;1.00;;;-147.47;100.00;69272.31;5135073;27;31699;-69
2022/10/30 10:19:48;;;;;;;6.90;2.60;;;13.20;1.00;;;-147.47;100.00;69272.31;5135031;27;31319;-67
2022/10/30 10:22:22;;;;;;;6.10;2.00;;;13.30;1.00;;;-147.47;100.00;69272.31;5135363;27;31973;-69
2022/10/30 10:24:57;;;;;;;6.40;1.90;;;13.40;1.00;;;-147.47;100.00;69272.31;5135468;27;33281;-67
2022/10/30 10:27:47;;;;;;;4.63;1.80;;;13.30;1.00;;;-147.47;100.00;69272.31;5121900;27;31154;-70
2022/10/30 10:30:19;;;;;;;5.90;1.70;;;13.40;1.00;;;-147.47;100.00;69272.31;5137226;27;31461;-66
2022/10/30 10:33:13;;;;;;;5.68;1.80;;;13.50;1.00;;;-147.47;100.00;69272.31;5137111;27;32736;-68
2022/10/30 10:36:04;;;;;;;5.90;1.80;;;13.60;1.00;;;-147.47;100.00;69272.31;5137294;27;32157;-69